Time;durP1;ratioP1;P1;durP2;ratioP2;P2;SDS_P1;SDS_P2;PMS_P1;PMS_P2;Temp;Humidity;BMP_temperature;BMP_pressure;BME280_temperature;BME280_humidity;BME280_pressure;Samples;Min_cycle;Max_cycle;Signal;HPM_P1;HPM_P2
2022/04/26 03:38:21;;;;;;;0.53;0.30;;;22.70;99.90;;;;;;5112010;28;20211;-73
2022/04/26 03:40:49;;;;;;;1.38;0.40;;;22.60;99.90;;;;;;5108585;28;20030;-73
2022/04/26 03:43:16;;;;;;;0.60;0.30;;;22.60;99.90;;;;;;5108411;28;20039;-73
2022/04/26 03:45:43;;;;;;;0.95;0.40;;;22.60;99.90;;;;;;5103502;27;20390;-73
2022/04/26 03:48:11;;;;;;;0.80;0.30;;;22.40;99.90;;;;;;5131538;27;20104;-73
2022/04/26 03:50:38;;;;;;;0.30;0.30;;;22.40;99.90;;;;;;5134572;27;20397;-74
2022/04/26 03:53:05;;;;;;;1.15;0.30;;;22.20;99.90;;;;;;5101331;28;20028;-73
2022/04/26 03:55:33;;;;;;;0.77;0.50;;;22.20;99.90;;;;;;5110119;28;20516;-73
2022/04/26 03:58:00;;;;;;;4.80;0.30;;;22.00;99.90;;;;;;5116742;27;20032;-75
2022/04/26 04:00:27;;;;;;;0.25;0.20;;;22.10;99.90;;;;;;5113348;28;20020;-73
2022/04/26 04:02:55;;;;;;;2.17;0.30;;;22.20;99.90;;;;;;5108484;28;20028;-73
2022/04/26 04:05:25;;;;;;;0.47;0.25;;;22.20;99.90;;;;;;5109524;27;20031;-73
2022/04/26 04:07:52;;;;;;;2.05;0.45;;;22.30;99.90;;;;;;5110944;27;20505;-74
2022/04/26 04:10:20;;;;;;;0.32;0.10;;;22.40;99.90;;;;;;5111223;27;20035;-74
2022/04/26 04:12:47;;;;;;;1.23;0.20;;;22.30;99.90;;;;;;5109108;28;20046;-73
2022/04/26 04:15:14;;;;;;;0.30;0.13;;;22.30;99.90;;;;;;5109682;28;20493;-73
2022/04/26 04:17:42;;;;;;;1.67;0.20;;;22.20;99.90;;;;;;5103133;28;20390;-72
2022/04/26 04:20:11;;;;;;;0.98;0.68;;;22.10;99.90;;;;;;5106815;28;20043;-73
2022/04/26 04:22:40;;;;;;;0.28;0.28;;;22.10;99.90;;;;;;5097858;28;20031;-73
2022/04/26 04:25:08;;;;;;;1.75;0.30;;;22.10;99.90;;;;;;5101238;28;20038;-73
2022/04/26 04:27:35;;;;;;;1.65;0.10;;;22.20;99.90;;;;;;5098910;27;20307;-73
2022/04/26 04:30:03;;;;;;;0.40;0.20;;;22.20;99.90;;;;;;5102912;27;20020;-73
2022/04/26 04:32:30;;;;;;;2.53;1.00;;;22.30;99.90;;;;;;5104126;27;20466;-73
2022/04/26 04:34:58;;;;;;;1.20;0.30;;;22.30;99.90;;;;;;5104756;28;20513;-72
2022/04/26 04:37:25;;;;;;;1.55;0.30;;;22.30;99.90;;;;;;5102810;28;20050;-74
2022/04/26 04:39:53;;;;;;;0.57;0.40;;;22.30;99.90;;;;;;5101000;28;20509;-72
2022/04/26 04:42:21;;;;;;;0.45;0.20;;;22.40;99.90;;;;;;5100025;28;20031;-73
2022/04/26 04:44:48;;;;;;;0.40;0.30;;;22.40;99.90;;;;;;5102662;27;20027;-74
2022/04/26 04:47:16;;;;;;;1.60;0.50;;;22.30;99.90;;;;;;5103138;28;20047;-73
2022/04/26 04:49:43;;;;;;;0.40;0.28;;;22.40;99.90;;;;;;5102465;27;20466;-73
2022/04/26 04:52:10;;;;;;;0.38;0.20;;;22.40;99.90;;;;;;5098951;28;20038;-72
2022/04/26 04:54:38;;;;;;;1.90;0.40;;;22.50;99.90;;;;;;5100784;27;20028;-73
2022/04/26 04:57:05;;;;;;;0.50;0.30;;;22.40;99.90;;;;;;5099214;27;20382;-73
2022/04/26 04:59:33;;;;;;;2.75;0.50;;;22.30;99.90;;;;;;5101323;28;20032;-73
2022/04/26 05:02:00;;;;;;;0.85;0.40;;;22.10;99.90;;;;;;5098704;27;20437;-75
2022/04/26 05:04:28;;;;;;;1.13;0.32;;;22.00;99.90;;;;;;5098918;28;20031;-73
2022/04/26 05:06:55;;;;;;;1.40;0.60;;;22.00;99.90;;;;;;5104837;27;20469;-73
2022/04/26 05:09:22;;;;;;;1.42;0.60;;;21.90;99.90;;;;;;5111515;28;20028;-74
2022/04/26 05:11:50;;;;;;;1.38;0.85;;;21.90;99.90;;;;;;5099510;28;20140;-71
2022/04/26 05:14:17;;;;;;;0.73;0.40;;;21.90;99.90;;;;;;5102424;27;20524;-74
2022/04/26 05:16:44;;;;;;;2.15;0.65;;;21.90;99.90;;;;;;5098354;28;20032;-74
2022/04/26 05:19:12;;;;;;;1.15;0.40;;;21.80;99.90;;;;;;5093097;28;20035;-75
2022/04/26 05:21:39;;;;;;;1.13;0.40;;;21.80;99.90;;;;;;5112859;27;20500;-73
2022/04/26 05:26:52;;;;;;;0.47;0.30;;;21.90;99.90;;;;;;5104829;27;20235;-75
2022/04/26 05:29:19;;;;;;;2.72;0.38;;;21.90;99.90;;;;;;5107248;28;20385;-74
2022/04/26 05:31:46;;;;;;;0.80;0.50;;;21.90;99.90;;;;;;5106854;27;20027;-74
2022/04/26 05:34:14;;;;;;;0.32;0.22;;;21.80;99.90;;;;;;5104113;28;20219;-73
2022/04/26 05:36:41;;;;;;;1.08;0.40;;;21.70;99.90;;;;;;5096055;28;20114;-73
2022/04/26 05:39:08;;;;;;;1.15;0.80;;;21.70;99.90;;;;;;5098714;28;20123;-73
2022/04/26 05:41:36;;;;;;;0.70;0.60;;;21.70;99.90;;;;;;5108082;28;20031;-72
2022/04/26 05:44:03;;;;;;;3.47;0.40;;;21.60;99.90;;;;;;5108044;28;20734;-74
2022/04/26 05:46:30;;;;;;;2.50;0.20;;;21.60;99.90;;;;;;5098306;28;20148;-74
2022/04/26 05:48:58;;;;;;;4.13;0.50;;;21.60;99.90;;;;;;5098856;28;20413;-74
2022/04/26 05:51:25;;;;;;;1.40;0.60;;;21.50;99.90;;;;;;5098590;27;20031;-72
2022/04/26 05:53:52;;;;;;;0.70;0.40;;;21.50;99.90;;;;;;5099198;28;20024;-73
2022/04/26 05:56:20;;;;;;;1.40;0.20;;;21.40;99.90;;;;;;5096756;27;20028;-74
2022/04/26 05:58:47;;;;;;;2.03;0.73;;;21.40;99.90;;;;;;5099497;28;20012;-74
2022/04/26 06:01:14;;;;;;;3.95;0.63;;;21.40;99.90;;;;;;5086596;28;20035;-75
2022/04/26 06:03:42;;;;;;;1.15;0.55;;;21.30;99.90;;;;;;5107575;28;20019;-73
2022/04/26 06:06:09;;;;;;;2.03;0.45;;;21.30;99.90;;;;;;5107019;28;20513;-73
2022/04/26 06:08:37;;;;;;;0.90;0.25;;;21.40;99.90;;;;;;5098761;28;20054;-73
2022/04/26 06:11:04;;;;;;;2.45;0.40;;;21.30;99.90;;;;;;5106054;28;20088;-73
2022/04/26 06:13:32;;;;;;;1.15;0.45;;;21.20;99.90;;;;;;5107540;28;20484;-73
2022/04/26 06:15:59;;;;;;;2.72;0.32;;;21.10;99.90;;;;;;5107021;28;20071;-73
2022/04/26 06:18:26;;;;;;;0.85;0.40;;;21.00;99.90;;;;;;5111592;28;20604;-73
2022/04/26 06:20:54;;;;;;;1.23;0.90;;;21.10;99.90;;;;;;5094775;28;20043;-73
2022/04/26 06:23:21;;;;;;;0.60;0.45;;;20.90;99.90;;;;;;5117677;28;21521;-73
2022/04/26 06:25:48;;;;;;;1.13;0.40;;;20.80;99.90;;;;;;5103867;28;20032;-74
2022/04/26 06:28:16;;;;;;;1.00;0.35;;;20.80;99.90;;;;;;5110487;28;20564;-73
2022/04/26 06:30:44;;;;;;;0.57;0.30;;;20.70;99.90;;;;;;5098283;28;20024;-73
2022/04/26 06:33:11;;;;;;;0.82;0.32;;;20.60;99.90;;;;;;5101669;28;20112;-73
2022/04/26 06:35:40;;;;;;;4.45;0.60;;;20.70;99.90;;;;;;5101721;28;20035;-72
2022/04/26 06:38:07;;;;;;;0.30;0.30;;;20.70;99.90;;;;;;5104118;28;20036;-73
2022/04/26 06:40:34;;;;;;;0.70;0.47;;;20.50;99.90;;;;;;5103354;27;20035;-72
2022/04/26 06:43:02;;;;;;;1.95;0.30;;;20.50;99.90;;;;;;5104282;27;20027;-73
2022/04/26 06:45:29;;;;;;;1.65;0.40;;;20.40;99.90;;;;;;5105650;28;20038;-73
2022/04/26 06:47:57;;;;;;;0.90;0.28;;;20.30;99.90;;;;;;5099151;27;20048;-73
2022/04/26 06:50:24;;;;;;;3.40;0.40;;;20.30;99.90;;;;;;5106234;27;20039;-73
2022/04/26 06:52:51;;;;;;;0.63;0.30;;;20.20;99.90;;;;;;5106757;27;20151;-72
2022/04/26 06:55:19;;;;;;;0.45;0.45;;;20.10;99.90;;;;;;5079745;27;20032;-73
2022/04/26 06:57:47;;;;;;;0.70;0.43;;;20.10;99.90;;;;;;5100494;28;20118;-71
2022/04/26 07:00:15;;;;;;;0.40;0.30;;;20.10;99.90;;;;;;5100058;27;20082;-73
2022/04/26 07:02:42;;;;;;;2.38;0.85;;;20.10;99.90;;;;;;5102583;28;20722;-73
2022/04/26 07:05:11;;;;;;;1.10;0.75;;;20.00;99.90;;;;;;5106084;28;20071;-72
2022/04/26 07:07:39;;;;;;;1.05;0.57;;;20.00;99.90;;;;;;5100793;27;20496;-73
2022/04/26 07:10:08;;;;;;;1.15;0.40;;;19.90;99.90;;;;;;5098359;27;20031;-73
2022/04/26 07:12:35;;;;;;;1.77;0.47;;;19.80;99.90;;;;;;5094898;27;20016;-72
2022/04/26 07:15:04;;;;;;;0.40;0.20;;;19.80;99.90;;;;;;5094860;27;20131;-73
2022/04/26 07:17:31;;;;;;;2.60;0.68;;;19.90;99.90;;;;;;5094852;27;20020;-74
2022/04/26 07:20:01;;;;;;;2.60;0.45;;;19.90;99.90;;;;;;5094348;27;20031;-74
2022/04/26 07:22:29;;;;;;;0.93;0.30;;;20.20;99.90;;;;;;5095627;27;20016;-73
2022/04/26 07:24:57;;;;;;;7.95;0.85;;;20.30;99.90;;;;;;5094466;27;20148;-73
2022/04/26 07:27:24;;;;;;;1.17;0.30;;;20.40;99.90;;;;;;5095266;27;20047;-72
2022/04/26 07:29:53;;;;;;;3.10;0.30;;;20.40;99.90;;;;;;5093009;27;20031;-72
2022/04/26 07:34:20;;;;;;;5.28;1.60;;;20.30;99.90;;;;;;5093324;27;20393;-72
2022/04/26 07:35:10;;;;;;;2.28;0.55;;;20.10;99.90;;;;;;5088844;27;20047;-72
2022/04/26 07:37:39;;;;;;;1.35;0.40;;;20.10;99.90;;;;;;5090190;27;20118;-74
2022/04/26 07:40:07;;;;;;;5.78;1.27;;;19.90;99.90;;;;;;5090096;27;20088;-75
2022/04/26 07:42:35;;;;;;;1.38;0.57;;;19.80;99.90;;;;;;5092152;27;20467;-75
2022/04/26 07:45:02;;;;;;;1.88;0.43;;;19.70;99.90;;;;;;5089000;27;20039;-76
2022/04/26 07:47:30;;;;;;;2.88;0.60;;;19.50;99.90;;;;;;5093009;27;20109;-74
2022/04/26 07:49:59;;;;;;;5.88;1.05;;;19.50;99.90;;;;;;5093383;27;20032;-75
2022/04/26 07:52:28;;;;;;;6.25;2.00;;;19.40;99.90;;;;;;5093857;27;20040;-73
2022/04/26 07:54:56;;;;;;;3.83;2.10;;;19.30;99.90;;;;;;5091236;27;20047;-75
2022/04/26 07:57:23;;;;;;;4.78;1.52;;;19.20;99.90;;;;;;5093197;27;20028;-74
2022/04/26 07:59:51;;;;;;;5.00;1.55;;;19.20;99.90;;;;;;5093285;27;20612;-74
2022/04/26 08:02:18;;;;;;;3.00;1.48;;;19.10;99.90;;;;;;5093605;27;20055;-75
2022/04/26 08:04:46;;;;;;;4.07;1.45;;;19.10;99.90;;;;;;5091737;27;20045;-74
2022/04/26 08:07:13;;;;;;;3.47;1.35;;;19.10;99.90;;;;;;5073707;27;20122;-74
2022/04/26 08:09:41;;;;;;;2.40;1.15;;;19.00;99.90;;;;;;5090996;27;20035;-73
2022/04/26 08:12:08;;;;;;;2.28;1.02;;;19.00;99.90;;;;;;5091418;27;20032;-74
2022/04/26 08:14:35;;;;;;;4.53;2.10;;;19.00;99.90;;;;;;5092782;27;20511;-74
2022/04/26 08:17:03;;;;;;;5.07;1.10;;;18.90;99.90;;;;;;5091875;27;20080;-73
2022/04/26 08:19:30;;;;;;;3.08;0.95;;;18.90;99.90;;;;;;5091393;27;20024;-73
2022/04/26 08:21:59;;;;;;;1.17;0.50;;;18.90;99.90;;;;;;5093785;27;20832;-75
2022/04/26 08:27:30;;;;;;;3.03;0.85;;;18.80;99.90;;;;;;5092349;27;20039;-74
2022/04/26 08:29:58;;;;;;;2.10;0.82;;;18.80;99.90;;;;;;5090708;27;20113;-74
2022/04/26 08:32:28;;;;;;;2.35;0.77;;;18.80;99.90;;;;;;5075448;28;20036;-75
2022/04/26 08:34:58;;;;;;;4.45;1.17;;;18.90;99.90;;;;;;5091771;27;20027;-74
2022/04/26 08:37:26;;;;;;;2.47;1.20;;;18.80;99.90;;;;;;5091084;27;20043;-74
2022/04/26 08:39:55;;;;;;;3.85;1.58;;;18.90;99.90;;;;;;5090322;27;20035;-74
2022/04/26 08:42:44;;;;;;;2.88;1.38;;;18.90;99.90;;;;;;5091531;27;20024;-75
2022/04/26 08:45:14;;;;;;;3.33;1.48;;;18.90;99.90;;;;;;5089673;27;20496;-74
2022/04/26 08:53:17;;;;;;;3.57;1.47;;;18.90;99.90;;;;;;5091365;27;20397;-75
2022/04/26 08:55:49;;;;;;;1.95;0.90;;;18.90;99.90;;;;;;5091035;27;20542;-73
2022/04/26 08:58:19;;;;;;;2.10;1.10;;;18.90;99.90;;;;;;5075222;27;20116;-75
2022/04/26 09:01:06;;;;;;;1.30;0.85;;;18.80;99.90;;;;;;5076589;27;20577;-75
2022/04/26 09:03:41;;;;;;;3.60;1.00;;;18.90;99.90;;;;;;5091346;27;22754;-76
2022/04/26 09:06:15;;;;;;;1.10;0.70;;;18.80;99.90;;;;;;5091765;27;20383;-76
2022/04/26 09:08:44;;;;;;;2.75;0.77;;;18.80;99.90;;;;;;5092492;27;20621;-76
2022/04/26 09:11:41;;;;;;;3.10;0.77;;;18.80;99.90;;;;;;5088678;27;20035;-75
2022/04/26 09:14:28;;;;;;;1.50;0.50;;;18.80;99.90;;;;;;5072418;27;20050;-75
2022/04/26 09:17:13;;;;;;;4.00;0.60;;;18.80;99.90;;;;;;5091583;27;20034;-74
2022/04/26 09:19:53;;;;;;;2.42;0.80;;;18.80;99.90;;;;;;5083804;27;20059;-75
2022/04/26 09:22:22;;;;;;;1.33;0.55;;;18.80;99.90;;;;;;5091183;27;20054;-75
2022/04/26 09:25:01;;;;;;;3.25;0.88;;;18.80;99.90;;;;;;5091048;27;20032;-74
2022/04/26 09:27:29;;;;;;;1.40;1.20;;;18.80;99.90;;;;;;5093143;27;20359;-74
2022/04/26 09:29:57;;;;;;;1.75;1.00;;;18.80;99.90;;;;;;5088541;27;20111;-76
2022/04/26 09:32:24;;;;;;;1.75;0.98;;;18.80;99.90;;;;;;5093786;27;20038;-75
2022/04/26 09:34:52;;;;;;;2.85;1.70;;;18.80;99.90;;;;;;5091301;27;20969;-74
2022/04/26 09:37:20;;;;;;;3.00;1.48;;;18.80;99.90;;;;;;5092167;27;20023;-74
2022/04/26 09:40:08;;;;;;;5.72;1.60;;;18.80;99.90;;;;;;5075558;27;20835;-75
2022/04/26 09:42:36;;;;;;;2.30;1.70;;;18.70;99.90;;;;;;5092489;27;20043;-75
2022/04/26 09:45:08;;;;;;;4.22;2.15;;;18.70;99.90;;;;;;5091642;27;20032;-74
2022/04/26 09:47:40;;;;;;;2.42;1.70;;;18.70;99.90;;;;;;5089735;27;20100;-74
2022/04/26 09:50:13;;;;;;;2.38;1.80;;;18.60;99.90;;;;;;5088585;27;20134;-75
2022/04/26 09:52:41;;;;;;;4.30;2.65;;;18.60;99.90;;;;;;5091328;27;20019;-74
2022/04/26 09:55:13;;;;;;;6.93;2.38;;;18.50;99.90;;;;;;5090576;27;20035;-73
2022/04/26 09:57:43;;;;;;;4.65;2.22;;;18.50;99.90;;;;;;5092481;27;20015;-74
2022/04/26 10:00:12;;;;;;;4.10;2.58;;;18.40;99.90;;;;;;5087134;27;20032;-74
2022/04/26 10:02:46;;;;;;;8.77;2.55;;;18.40;99.90;;;;;;5092420;27;20034;-74
2022/04/26 10:05:21;;;;;;;5.45;2.10;;;18.40;99.90;;;;;;5090041;28;20390;-76
2022/04/26 10:07:49;;;;;;;4.20;2.42;;;18.30;99.90;;;;;;5090645;28;20449;-74
2022/04/26 10:10:20;;;;;;;4.63;2.72;;;18.20;99.90;;;;;;5088796;28;20059;-75
2022/04/26 10:15:36;;;;;;;5.43;2.95;;;18.10;99.90;;;;;;5087522;28;20068;-74
2022/04/26 10:18:34;;;;;;;4.05;2.47;;;18.10;99.90;;;;;;5086991;28;20481;-74
2022/04/26 10:21:05;;;;;;;5.45;2.22;;;18.10;99.90;;;;;;5087742;28;20035;-75
2022/04/26 10:23:51;;;;;;;3.35;2.80;;;18.10;99.90;;;;;;5088891;28;20098;-73
2022/04/26 10:26:27;;;;;;;6.10;2.38;;;18.10;99.90;;;;;;5090820;28;20503;-74
2022/04/26 10:29:00;;;;;;;4.32;2.75;;;18.00;99.90;;;;;;5087793;28;22790;-75
2022/04/26 10:31:57;;;;;;;2.88;1.80;;;17.90;99.90;;;;;;5087320;28;20043;-75
2022/04/26 10:34:31;;;;;;;5.07;2.38;;;17.90;99.90;;;;;;5089618;28;20021;-75
2022/04/26 10:37:07;;;;;;;5.97;2.28;;;17.90;99.90;;;;;;5090674;28;20176;-75
2022/04/26 10:39:36;;;;;;;4.32;2.30;;;17.80;99.90;;;;;;5086933;28;20046;-73
2022/04/26 10:42:17;;;;;;;4.25;2.05;;;17.80;99.90;;;;;;5087249;28;20043;-75
2022/04/26 10:44:49;;;;;;;2.97;1.83;;;17.80;99.90;;;;;;5089948;28;20109;-75
2022/04/26 10:47:19;;;;;;;7.03;2.42;;;17.80;99.90;;;;;;5085541;28;20056;-73
2022/04/26 10:49:47;;;;;;;2.90;1.95;;;17.70;99.90;;;;;;5080747;28;21798;-76
2022/04/26 10:52:16;;;;;;;3.83;2.45;;;17.80;99.90;;;;;;5081897;28;20032;-75
2022/04/26 10:55:07;;;;;;;2.53;1.92;;;17.80;99.90;;;;;;5081497;28;20031;-75
2022/04/26 10:57:46;;;;;;;4.13;2.45;;;17.80;99.90;;;;;;5089574;28;20096;-74
2022/04/26 11:00:18;;;;;;;4.32;2.33;;;17.80;99.90;;;;;;5089412;28;20024;-74
2022/04/26 11:02:48;;;;;;;3.60;2.25;;;17.80;99.90;;;;;;5089790;28;20109;-74
2022/04/26 11:05:24;;;;;;;5.45;2.30;;;17.70;99.90;;;;;;5087684;28;20377;-74
2022/04/26 11:07:52;;;;;;;3.28;2.53;;;17.70;99.90;;;;;;5090220;28;20034;-75
2022/04/26 11:10:25;;;;;;;3.72;2.60;;;17.70;99.90;;;;;;5089572;28;20032;-74
2022/04/26 11:12:55;;;;;;;6.68;4.65;;;17.60;99.90;;;;;;5090187;28;20060;-74
2022/04/26 11:15:24;;;;;;;8.00;5.88;;;17.60;99.90;;;;;;5089453;27;22368;-75
2022/04/26 11:17:54;;;;;;;6.68;5.35;;;17.60;99.90;;;;;;5092526;27;20449;-74
2022/04/26 11:20:26;;;;;;;7.45;5.47;;;17.50;99.90;;;;;;5092374;27;20412;-74
2022/04/26 11:22:58;;;;;;;11.38;7.45;;;17.50;99.90;;;;;;5087787;27;20035;-75
2022/04/26 11:28:16;;;;;;;13.90;9.00;;;17.40;99.90;;;;;;5091718;27;20050;-74
2022/04/26 11:30:47;;;;;;;11.27;9.77;;;17.40;99.90;;;;;;5087868;27;20023;-74
2022/04/26 11:33:19;;;;;;;12.90;10.10;;;17.30;99.90;;;;;;5094328;27;20518;-74
2022/04/26 11:36:01;;;;;;;15.05;8.77;;;17.30;99.90;;;;;;5087690;27;20122;-74
2022/04/26 11:38:29;;;;;;;10.98;8.60;;;17.30;99.90;;;;;;5092972;27;20027;-74
2022/04/26 11:41:03;;;;;;;10.02;8.63;;;17.30;99.90;;;;;;5091175;27;20027;-75
2022/04/26 11:43:35;;;;;;;8.43;6.93;;;17.30;99.90;;;;;;5090358;27;20574;-75
2022/04/26 11:46:03;;;;;;;7.22;5.45;;;17.30;99.90;;;;;;5092973;27;20385;-72
2022/04/26 11:48:36;;;;;;;7.30;4.18;;;17.30;99.90;;;;;;5093691;27;20486;-73
2022/04/26 11:51:04;;;;;;;7.47;3.65;;;17.30;99.90;;;;;;5091180;27;20051;-74
2022/04/26 11:53:36;;;;;;;5.38;3.70;;;17.30;99.90;;;;;;5093231;27;20024;-74
2022/04/26 11:56:05;;;;;;;5.70;3.55;;;17.30;99.90;;;;;;5093077;27;20476;-76
2022/04/26 11:58:34;;;;;;;7.40;4.47;;;17.30;99.90;;;;;;5090261;27;20497;-75
2022/04/26 12:01:11;;;;;;;6.35;4.88;;;17.30;99.90;;;;;;5089853;27;20046;-76
2022/04/26 12:03:47;;;;;;;8.40;5.63;;;17.30;99.90;;;;;;5093162;27;20019;-75
2022/04/26 12:06:17;;;;;;;8.68;5.38;;;17.30;99.90;;;;;;5092699;27;20036;-75
2022/04/26 12:08:48;;;;;;;9.07;6.78;;;17.30;99.90;;;;;;5090116;27;20096;-75
2022/04/26 12:11:20;;;;;;;9.65;6.95;;;17.30;99.90;;;;;;5088193;27;20035;-75
2022/04/26 12:14:06;;;;;;;9.15;5.75;;;17.30;99.90;;;;;;5095479;27;20036;-76
2022/04/26 12:16:54;;;;;;;8.98;6.88;;;17.30;99.90;;;;;;5074011;28;20054;-76
2022/04/26 12:19:35;;;;;;;9.30;6.57;;;17.30;99.90;;;;;;5084961;27;20482;-75
2022/04/26 12:22:03;;;;;;;7.55;6.13;;;17.20;99.90;;;;;;5089186;27;20048;-75
2022/04/26 12:24:44;;;;;;;9.68;6.68;;;17.20;99.90;;;;;;5091288;27;20504;-74
2022/04/26 12:27:22;;;;;;;7.65;6.43;;;17.20;99.90;;;;;;5099738;27;20028;-75
2022/04/26 12:29:53;;;;;;;7.28;5.63;;;17.20;99.90;;;;;;5092397;27;20032;-76
2022/04/26 12:32:24;;;;;;;10.55;6.03;;;17.20;99.90;;;;;;5091489;27;20050;-76
2022/04/26 12:34:56;;;;;;;10.93;6.95;;;17.20;99.90;;;;;;5090632;27;21041;-75
2022/04/26 12:37:29;;;;;;;9.27;6.00;;;17.20;99.90;;;;;;5091482;27;20035;-75
2022/04/26 12:40:07;;;;;;;7.82;5.78;;;17.30;99.90;;;;;;5092738;27;20034;-74
2022/04/26 12:42:40;;;;;;;8.75;4.93;;;17.30;99.90;;;;;;5099088;27;20605;-75
2022/04/26 12:45:21;;;;;;;6.75;4.90;;;17.30;99.90;;;;;;5096160;27;20035;-74
2022/04/26 12:51:22;;;;;;;9.45;6.20;;;17.30;99.90;;;;;;5010322;28;20147;-75
2022/04/26 12:53:51;;;;;;;10.40;6.50;;;17.40;99.90;;;;;;5089501;27;20036;-74
2022/04/26 12:56:20;;;;;;;6.28;5.03;;;17.30;99.90;;;;;;5090902;27;20039;-75
2022/04/26 12:58:49;;;;;;;7.88;5.38;;;17.40;99.90;;;;;;5089182;27;20031;-75
2022/04/26 13:01:18;;;;;;;6.95;5.03;;;17.40;99.90;;;;;;5092364;27;20550;-76
2022/04/26 13:03:47;;;;;;;6.35;4.30;;;17.40;99.90;;;;;;5087630;27;20024;-75
2022/04/26 13:06:20;;;;;;;6.28;4.82;;;17.40;99.90;;;;;;5098099;27;20028;-76
2022/04/26 13:08:51;;;;;;;6.13;4.22;;;17.30;99.90;;;;;;5119030;27;20497;-74
2022/04/26 13:11:18;;;;;;;6.95;4.43;;;17.30;99.90;;;;;;5111025;28;20032;-78
2022/04/26 13:13:49;;;;;;;5.93;4.05;;;17.30;99.90;;;;;;5107855;27;20034;-76
2022/04/26 13:16:19;;;;;;;6.55;4.70;;;17.40;99.90;;;;;;5099505;28;20063;-76
2022/04/26 13:18:47;;;;;;;7.60;4.47;;;17.30;99.90;;;;;;5109058;28;20529;-77
2022/04/26 13:21:15;;;;;;;5.30;4.72;;;17.40;99.90;;;;;;5110576;27;20134;-76
2022/04/26 13:23:43;;;;;;;5.60;4.97;;;17.30;99.90;;;;;;5101010;27;20024;-76
2022/04/26 13:26:10;;;;;;;6.85;4.93;;;17.30;99.90;;;;;;5092536;27;20370;-77
2022/04/26 13:28:38;;;;;;;6.85;4.93;;;17.30;99.90;;;;;;5120800;27;20050;-77
2022/04/26 13:31:05;;;;;;;5.60;4.97;;;17.30;99.90;;;;;;5103045;28;20042;-77
2022/04/26 13:33:32;;;;;;;6.68;5.10;;;17.30;99.90;;;;;;5112014;28;20012;-77
2022/04/26 13:36:00;;;;;;;7.20;5.47;;;17.20;99.90;;;;;;5109104;28;20122;-76
2022/04/26 13:38:27;;;;;;;5.70;4.65;;;17.20;99.90;;;;;;5110058;28;20023;-77
2022/04/26 13:40:55;;;;;;;7.80;4.57;;;17.10;99.90;;;;;;5109471;28;20031;-76
2022/04/26 13:43:24;;;;;;;7.38;4.53;;;17.10;99.90;;;;;;5109296;28;20083;-76
2022/04/26 13:45:51;;;;;;;7.78;4.50;;;17.10;99.90;;;;;;5110661;28;20449;-76
2022/04/26 13:48:19;;;;;;;6.57;4.07;;;17.10;99.90;;;;;;5119554;27;20047;-75
2022/04/26 13:50:46;;;;;;;5.25;3.65;;;17.10;99.90;;;;;;5108297;28;20081;-77
2022/04/26 13:53:13;;;;;;;5.47;3.65;;;17.10;99.90;;;;;;5110022;28;20039;-77
2022/04/26 13:55:41;;;;;;;6.18;3.72;;;17.00;99.90;;;;;;5110131;27;20043;-77
2022/04/26 13:58:10;;;;;;;4.22;3.33;;;17.00;99.90;;;;;;5106802;27;20038;-77
2022/04/26 14:00:37;;;;;;;6.50;3.30;;;16.90;99.90;;;;;;5115180;27;20024;-77
2022/04/26 14:03:08;;;;;;;5.03;2.90;;;16.90;99.90;;;;;;5112813;27;20039;-77
2022/04/26 14:05:35;;;;;;;4.35;3.40;;;16.80;99.90;;;;;;5110650;28;20486;-77
2022/04/26 14:08:03;;;;;;;4.22;2.65;;;16.80;99.90;;;;;;5110127;27;20497;-76
2022/04/26 14:10:31;;;;;;;4.20;2.80;;;16.80;99.90;;;;;;5115566;27;20125;-76
2022/04/26 14:12:59;;;;;;;5.32;2.63;;;16.80;99.90;;;;;;5115722;28;20107;-75
2022/04/26 14:23:43;;;;;;;4.47;2.33;;;16.80;99.90;;;;;;5114909;28;20140;-76
2022/04/26 14:26:10;;;;;;;3.78;2.80;;;16.90;99.90;;;;;;5092769;28;20038;-76
2022/04/26 14:28:38;;;;;;;3.33;2.58;;;16.80;99.90;;;;;;5110550;28;20763;-76
2022/04/26 14:31:05;;;;;;;3.92;2.70;;;16.80;99.90;;;;;;5108666;28;20925;-76
2022/04/26 14:33:33;;;;;;;4.43;3.03;;;16.80;99.90;;;;;;5104651;28;20051;-76
2022/04/26 14:36:01;;;;;;;2.78;2.35;;;16.80;99.90;;;;;;5098865;28;20032;-75
2022/04/26 14:38:29;;;;;;;4.20;2.58;;;16.80;99.90;;;;;;5106710;28;20028;-77
2022/04/26 14:40:56;;;;;;;5.25;2.58;;;16.80;99.90;;;;;;5092689;28;20032;-75
2022/04/26 14:43:24;;;;;;;4.15;2.20;;;16.90;99.90;;;;;;5108732;28;20554;-77
2022/04/26 14:45:53;;;;;;;2.90;2.05;;;16.90;99.90;;;;;;5108557;28;20035;-77
2022/04/26 14:48:23;;;;;;;3.45;2.15;;;16.90;99.90;;;;;;5108794;28;20097;-76
2022/04/26 14:50:50;;;;;;;3.88;2.45;;;16.90;99.90;;;;;;5116048;27;20026;-76
2022/04/26 14:53:18;;;;;;;2.95;2.35;;;17.00;99.90;;;;;;5099636;28;20497;-77
2022/04/26 14:55:46;;;;;;;3.17;2.45;;;17.00;99.90;;;;;;5114438;28;20531;-76
2022/04/26 14:58:14;;;;;;;2.70;2.22;;;17.00;99.90;;;;;;5112577;28;20107;-77
2022/04/26 15:00:42;;;;;;;5.22;2.50;;;17.10;99.90;;;;;;5115128;28;20054;-77
2022/04/26 15:03:10;;;;;;;4.35;2.83;;;17.10;99.90;;;;;;5111905;28;20023;-77
2022/04/26 15:05:37;;;;;;;4.47;2.70;;;17.10;99.90;;;;;;5112710;28;20034;-76
2022/04/26 15:10:50;;;;;;;4.35;3.15;;;17.10;99.90;;;;;;5112209;28;20136;-76
2022/04/26 15:18:48;;;;;;;3.85;2.78;;;17.10;99.90;;;;;;5118336;27;20088;-76
2022/04/26 15:21:16;;;;;;;4.72;2.35;;;17.10;99.90;;;;;;5112160;27;20099;-77
2022/04/26 15:23:43;;;;;;;4.68;3.30;;;17.20;99.90;;;;;;5111116;28;20012;-78
2022/04/26 15:26:11;;;;;;;4.47;3.45;;;17.10;99.90;;;;;;5112825;27;20772;-77
2022/04/26 15:28:39;;;;;;;4.40;2.78;;;17.20;99.90;;;;;;5110195;27;20027;-78
2022/04/26 15:31:06;;;;;;;4.00;3.10;;;17.20;99.90;;;;;;5103896;27;20032;-76
2022/04/26 15:33:34;;;;;;;3.50;3.08;;;17.10;99.90;;;;;;5126255;27;20023;-77
2022/04/26 15:36:02;;;;;;;5.28;3.13;;;17.10;99.90;;;;;;5093368;27;20108;-77
2022/04/26 15:38:29;;;;;;;7.00;3.08;;;17.10;99.90;;;;;;5118152;27;20027;-76
2022/04/26 15:41:05;;;;;;;3.80;2.78;;;17.00;99.90;;;;;;5109289;28;20027;-77
2022/04/26 15:43:36;;;;;;;;;;;17.00;99.90;;;;;;5098436;28;20438;-76
2022/04/26 15:46:08;;;;;;;4.97;3.22;;;17.00;99.90;;;;;;5105992;27;20468;-78
2022/04/26 15:48:44;;;;;;;5.70;3.33;;;16.90;99.90;;;;;;5118463;27;20039;-77
2022/04/26 15:51:11;;;;;;;;;;;16.90;99.90;;;;;;5110227;28;20070;-77
2022/04/26 15:53:38;;;;;;;4.63;3.33;;;16.80;99.90;;;;;;5112226;28;19915;-77
2022/04/26 15:56:05;;;;;;;5.00;3.70;;;16.80;99.90;;;;;;5110782;27;20162;-77
2022/04/26 15:58:33;;;;;;;4.18;3.78;;;16.80;99.90;;;;;;5113009;28;20055;-77
2022/04/26 16:01:00;;;;;;;4.40;3.13;;;16.80;99.90;;;;;;5110220;28;20088;-77
2022/04/26 16:03:28;;;;;;;6.07;3.65;;;16.80;99.90;;;;;;5111705;28;20729;-77
2022/04/26 16:05:55;;;;;;;4.85;2.90;;;16.80;99.90;;;;;;5112009;27;20029;-77
2022/04/26 16:08:22;;;;;;;6.57;3.10;;;16.80;99.90;;;;;;5103169;28;20031;-77
2022/04/26 16:22:11;;;;;;;2.10;1.90;;;16.80;99.90;;;;;;5090644;27;20042;-75
2022/04/26 16:24:41;;;;;;;2.70;1.90;;;16.70;99.90;;;;;;5111299;28;20311;-76
2022/04/26 16:27:09;;;;;;;3.40;2.17;;;16.70;99.90;;;;;;5111089;28;20023;-76
2022/04/26 16:29:37;;;;;;;3.55;2.20;;;16.70;99.90;;;;;;5112788;28;20024;-76
2022/04/26 16:32:04;;;;;;;3.75;2.28;;;16.70;99.90;;;;;;5106751;27;20547;-77
2022/04/26 16:34:32;;;;;;;3.67;1.75;;;16.70;99.90;;;;;;5111975;28;20020;-76
2022/04/26 16:36:59;;;;;;;3.28;2.60;;;16.70;99.90;;;;;;5120168;27;20168;-77
2022/04/26 16:39:26;;;;;;;2.92;2.45;;;16.70;99.90;;;;;;5117253;27;20030;-76
2022/04/26 16:41:54;;;;;;;4.63;2.55;;;16.70;99.90;;;;;;5110746;28;20028;-77
2022/04/26 16:44:23;;;;;;;4.72;2.67;;;16.70;99.90;;;;;;5112029;28;20020;-76
2022/04/26 16:46:50;;;;;;;3.05;2.58;;;16.70;99.90;;;;;;5110300;28;20185;-76
2022/04/26 16:49:18;;;;;;;3.58;2.38;;;16.70;99.90;;;;;;5111510;28;20036;-76
2022/04/26 16:51:46;;;;;;;5.15;2.65;;;16.80;99.90;;;;;;5114540;27;20024;-76
2022/04/26 16:54:14;;;;;;;3.40;2.42;;;16.70;99.90;;;;;;5112536;28;20527;-76
2022/04/26 16:56:41;;;;;;;3.78;2.85;;;16.70;99.90;;;;;;5111487;28;20046;-76
2022/04/26 16:59:09;;;;;;;6.38;2.90;;;16.70;99.90;;;;;;5111009;28;20020;-75
2022/04/26 17:01:36;;;;;;;5.93;2.65;;;16.70;99.90;;;;;;5108688;28;20047;-76
2022/04/26 17:04:10;;;;;;;4.32;2.80;;;16.70;99.90;;;;;;5109991;28;20111;-76
2022/04/26 17:06:38;;;;;;;7.07;3.03;;;16.70;99.90;;;;;;5116698;27;20031;-76
2022/04/26 17:09:05;;;;;;;6.15;3.38;;;16.70;99.90;;;;;;5113702;27;20024;-76
2022/04/26 17:11:42;;;;;;;4.10;3.47;;;16.70;99.90;;;;;;5115708;27;20035;-76
2022/04/26 17:14:11;;;;;;;5.47;3.05;;;16.60;99.90;;;;;;5104901;28;20470;-76
2022/04/26 17:16:39;;;;;;;4.60;2.92;;;16.60;99.90;;;;;;5097944;28;20053;-75
2022/04/26 17:19:06;;;;;;;6.43;2.90;;;16.60;99.90;;;;;;5111294;28;20064;-75
2022/04/26 17:21:34;;;;;;;3.30;2.80;;;16.50;99.90;;;;;;5113555;27;20030;-75
2022/04/26 17:24:01;;;;;;;7.55;2.83;;;16.50;99.90;;;;;;5123454;27;20031;-75
2022/04/26 17:26:30;;;;;;;5.60;3.40;;;16.50;99.90;;;;;;5110608;28;20092;-76